Time;durP1;ratioP1;P1;durP2;ratioP2;P2;SDS_P1;SDS_P2;PMS_P1;PMS_P2;Temp;Humidity;BMP_temperature;BMP_pressure;BME280_temperature;BME280_humidity;BME280_pressure;Samples;Min_cycle;Max_cycle;Signal;HPM_P1;HPM_P2
2023/06/05 00:00:14;;;;;;;9.73;6.37;;;16.60;12.50;;;;;;5008019;28;20474;-69
2023/06/05 00:02:41;;;;;;;9.93;6.73;;;16.50;12.80;;;;;;5006591;28;20471;-69
2023/06/05 00:05:08;;;;;;;10.77;7.13;;;16.50;13.30;;;;;;5008844;28;20486;-69
2023/06/05 00:07:37;;;;;;;11.90;6.30;;;16.40;13.20;;;;;;5006273;28;20464;-70
2023/06/05 00:10:06;;;;;;;9.67;6.10;;;16.40;13.10;;;;;;5004608;28;20496;-69
2023/06/05 00:12:33;;;;;;;9.27;6.30;;;16.30;13.20;;;;;;5007912;28;20487;-69
2023/06/05 00:15:01;;;;;;;14.67;6.47;;;16.30;13.30;;;;;;5005768;28;20483;-69
2023/06/05 00:17:28;;;;;;;10.50;6.17;;;16.30;13.20;;;;;;5005532;28;20974;-70
2023/06/05 00:19:54;;;;;;;10.73;6.17;;;16.20;13.40;;;;;;5009869;28;20476;-69
2023/06/05 00:22:21;;;;;;;11.53;6.53;;;16.20;13.50;;;;;;5008970;28;20848;-69
2023/06/05 00:24:48;;;;;;;9.67;5.90;;;16.20;13.50;;;;;;5012805;28;20577;-69
2023/06/05 00:27:16;;;;;;;9.83;6.90;;;16.10;14.10;;;;;;5008172;28;20485;-69
2023/06/05 00:29:42;;;;;;;11.50;6.43;;;16.10;13.60;;;;;;5008868;28;20475;-69
2023/06/05 00:32:09;;;;;;;9.27;5.97;;;16.00;13.70;;;;;;5005254;28;20476;-69
2023/06/05 00:34:36;;;;;;;9.50;6.50;;;16.10;13.70;;;;;;5008879;28;20491;-69
2023/06/05 00:37:03;;;;;;;9.50;6.20;;;16.00;13.80;;;;;;5007849;28;20463;-69
2023/06/05 00:39:29;;;;;;;10.40;6.37;;;16.00;13.90;;;;;;5007947;28;20472;-69
2023/06/05 00:41:56;;;;;;;10.27;6.27;;;16.00;13.90;;;;;;5009252;28;20474;-70
2023/06/05 00:44:24;;;;;;;9.57;5.20;;;15.90;13.90;;;;;;5005451;28;20488;-70
2023/06/05 00:46:53;;;;;;;9.73;5.90;;;15.90;13.90;;;;;;5024762;22;20467;-65
2023/06/05 00:49:20;;;;;;;8.37;5.43;;;15.80;14.00;;;;;;5028124;28;20478;-63
2023/06/05 00:51:48;;;;;;;9.67;5.83;;;15.80;13.80;;;;;;5034238;28;20582;-64
2023/06/05 00:54:14;;;;;;;9.17;5.50;;;15.80;13.90;;;;;;5032244;28;20961;-64
2023/06/05 00:56:42;;;;;;;9.97;5.97;;;15.70;14.00;;;;;;5032004;28;20471;-64
2023/06/05 00:59:10;;;;;;;8.90;5.67;;;15.60;14.10;;;;;;5029812;28;20985;-64
2023/06/05 01:01:38;;;;;;;9.60;5.83;;;15.60;14.00;;;;;;5025157;28;20502;-66
2023/06/05 01:04:05;;;;;;;9.80;4.83;;;15.60;14.00;;;;;;5020213;28;20971;-64
2023/06/05 01:06:33;;;;;;;8.00;4.90;;;15.60;13.90;;;;;;5027006;28;20842;-64
2023/06/05 01:09:00;;;;;;;9.57;5.33;;;15.50;14.00;;;;;;5026318;28;20462;-64
2023/06/05 01:11:36;;;;;;;9.67;5.43;;;15.50;14.30;;;;;;5030591;28;20505;-64
2023/06/05 01:14:09;;;;;;;8.37;5.50;;;15.50;14.00;;;;;;5033586;28;21104;-63
2023/06/05 01:16:38;;;;;;;10.60;5.43;;;15.50;14.00;;;;;;5028070;28;20999;-63
2023/06/05 01:19:06;;;;;;;9.67;5.73;;;15.40;14.10;;;;;;5031257;28;20471;-63
2023/06/05 01:21:33;;;;;;;11.13;5.93;;;15.40;14.00;;;;;;5026523;28;20832;-63
2023/06/05 01:24:01;;;;;;;9.70;6.13;;;15.40;14.20;;;;;;5031133;28;20854;-63
2023/06/05 01:26:35;;;;;;;9.60;5.47;;;15.40;14.30;;;;;;5029676;28;20463;-64
2023/06/05 01:29:05;;;;;;;10.00;6.33;;;15.30;14.50;;;;;;5031636;28;20972;-64
2023/06/05 01:31:36;;;;;;;9.70;6.60;;;15.30;14.60;;;;;;5028684;28;20479;-64
2023/06/05 01:34:07;;;;;;;10.90;6.33;;;15.30;14.80;;;;;;5024768;28;20553;-64
2023/06/05 01:36:34;;;;;;;8.97;5.00;;;15.20;14.80;;;;;;5025057;28;20463;-64
2023/06/05 01:39:03;;;;;;;9.80;5.53;;;15.20;15.00;;;;;;5034763;28;20503;-64
2023/06/05 01:41:30;;;;;;;9.20;5.17;;;15.20;15.10;;;;;;5022731;28;20461;-63
2023/06/05 01:43:57;;;;;;;7.50;4.80;;;15.10;15.00;;;;;;5028525;28;20463;-63
2023/06/05 01:46:24;;;;;;;8.70;5.70;;;15.10;14.90;;;;;;5023394;28;20483;-63
2023/06/05 01:48:52;;;;;;;9.13;5.67;;;15.10;15.20;;;;;;5026724;28;20500;-63
2023/06/05 01:51:19;;;;;;;9.67;6.27;;;15.10;15.10;;;;;;5033380;28;20475;-63
2023/06/05 01:53:48;;;;;;;10.83;6.37;;;15.00;15.90;;;;;;5027909;28;20471;-63
2023/06/05 01:56:19;;;;;;;8.97;5.90;;;15.00;15.20;;;;;;5025274;28;21321;-63
2023/06/05 01:58:47;;;;;;;10.63;5.77;;;15.00;15.40;;;;;;5035600;28;20498;-64
2023/06/05 02:01:15;;;;;;;12.63;6.60;;;15.00;15.80;;;;;;5026312;28;20486;-63
2023/06/05 02:03:47;;;;;;;9.57;6.00;;;14.90;15.90;;;;;;5026050;28;20493;-63
2023/06/05 02:06:15;;;;;;;9.23;6.10;;;14.90;16.00;;;;;;5022449;28;20565;-63
2023/06/05 02:08:42;;;;;;;8.57;5.60;;;14.90;16.00;;;;;;5029926;28;20524;-63
2023/06/05 02:11:09;;;;;;;9.40;5.73;;;14.80;16.00;;;;;;5028226;28;20465;-63
2023/06/05 02:13:38;;;;;;;9.80;5.67;;;14.70;16.10;;;;;;5029628;28;20485;-63
2023/06/05 02:16:05;;;;;;;9.47;5.10;;;14.70;15.90;;;;;;5025983;28;20490;-64
2023/06/05 02:18:32;;;;;;;11.27;5.03;;;14.70;15.80;;;;;;5021122;28;20467;-63
2023/06/05 02:20:59;;;;;;;8.43;5.20;;;14.70;15.60;;;;;;5023676;28;20558;-63
2023/06/05 02:23:26;;;;;;;11.97;5.90;;;14.70;15.60;;;;;;5022657;28;20970;-63
2023/06/05 02:25:53;;;;;;;10.33;5.50;;;14.60;15.70;;;;;;5024959;28;20486;-63
2023/06/05 02:28:20;;;;;;;10.17;5.77;;;14.60;15.50;;;;;;5024699;28;20470;-63
2023/06/05 02:30:48;;;;;;;8.70;5.20;;;14.60;15.50;;;;;;5024436;28;20481;-63
2023/06/05 02:33:15;;;;;;;11.07;5.17;;;14.60;15.40;;;;;;5021726;28;20487;-63
2023/06/05 02:35:42;;;;;;;9.03;5.10;;;14.60;15.30;;;;;;5018522;28;20490;-63
2023/06/05 02:38:09;;;;;;;10.30;5.20;;;14.50;15.40;;;;;;5023775;28;20470;-64
2023/06/05 02:40:36;;;;;;;10.33;6.93;;;14.60;15.30;;;;;;5019000;28;20876;-64
2023/06/05 02:43:05;;;;;;;11.13;7.13;;;14.50;15.50;;;;;;5025142;28;20462;-64
2023/06/05 02:45:32;;;;;;;10.13;6.40;;;14.50;15.20;;;;;;5023810;28;20543;-63
2023/06/05 02:48:00;;;;;;;8.27;5.43;;;14.50;15.70;;;;;;5027397;28;20497;-64
2023/06/05 02:50:26;;;;;;;8.77;5.97;;;14.40;15.50;;;;;;5018050;28;21286;-64
2023/06/05 02:52:53;;;;;;;8.80;5.07;;;14.40;15.60;;;;;;5027054;28;20482;-64
2023/06/05 02:55:21;;;;;;;8.63;5.07;;;14.40;15.50;;;;;;5023779;28;20491;-63
2023/06/05 02:57:48;;;;;;;10.13;5.80;;;14.40;15.70;;;;;;5025368;28;20467;-63
2023/06/05 03:00:16;;;;;;;8.43;5.20;;;14.40;15.50;;;;;;5019302;28;20471;-64
2023/06/05 03:02:48;;;;;;;9.63;6.40;;;14.40;15.50;;;;;;5022532;28;20495;-66
2023/06/05 03:05:24;;;;;;;10.10;7.63;;;14.30;15.70;;;;;;5022341;28;20485;-63
2023/06/05 03:07:53;;;;;;;10.23;7.70;;;14.30;15.40;;;;;;5021461;28;20462;-65
2023/06/05 03:10:20;;;;;;;11.20;6.93;;;14.30;15.50;;;;;;5027148;28;20485;-63
2023/06/05 03:12:47;;;;;;;14.00;6.10;;;14.30;15.40;;;;;;5022303;28;20526;-63
2023/06/05 03:15:16;;;;;;;10.50;6.10;;;14.30;15.40;;;;;;5023442;28;20478;-64
2023/06/05 03:17:43;;;;;;;10.53;5.50;;;14.30;15.20;;;;;;5024923;28;20467;-66
2023/06/05 03:20:10;;;;;;;8.10;4.67;;;14.20;15.70;;;;;;5022810;28;20473;-66
2023/06/05 03:22:39;;;;;;;8.83;5.50;;;14.20;15.80;;;;;;5023252;28;20461;-67
2023/06/05 03:25:08;;;;;;;8.87;5.83;;;14.20;15.80;;;;;;5023299;28;20490;-67
2023/06/05 03:27:35;;;;;;;8.27;5.77;;;14.10;15.80;;;;;;5024800;28;20466;-67
2023/06/05 03:30:01;;;;;;;7.63;5.30;;;14.10;15.80;;;;;;5017573;28;20460;-66
2023/06/05 03:32:28;;;;;;;8.83;5.43;;;14.10;15.80;;;;;;5025266;28;20482;-66
2023/06/05 03:34:55;;;;;;;10.90;4.97;;;14.10;16.00;;;;;;5024628;28;20482;-66
2023/06/05 03:37:22;;;;;;;8.57;5.00;;;14.10;16.30;;;;;;5025394;28;20545;-67
2023/06/05 03:39:50;;;;;;;8.33;4.87;;;14.10;16.20;;;;;;5026394;28;20963;-64
2023/06/05 03:42:16;;;;;;;7.93;5.00;;;14.10;15.90;;;;;;5028648;28;20486;-64
2023/06/05 03:44:43;;;;;;;8.80;4.83;;;14.10;15.70;;;;;;5026849;28;20483;-64
2023/06/05 03:47:10;;;;;;;7.60;4.60;;;14.20;15.60;;;;;;5029651;28;20469;-64
2023/06/05 03:49:37;;;;;;;9.13;5.00;;;14.20;15.60;;;;;;5025281;28;20464;-64
2023/06/05 03:52:04;;;;;;;8.03;4.77;;;14.20;15.70;;;;;;5025953;28;20507;-64
2023/06/05 03:54:33;;;;;;;10.77;5.53;;;14.20;15.60;;;;;;5026077;28;20486;-64
2023/06/05 03:57:02;;;;;;;8.77;5.03;;;14.20;15.50;;;;;;5028324;28;20501;-64
2023/06/05 03:59:29;;;;;;;7.43;4.40;;;14.30;15.40;;;;;;5024494;28;21407;-64
2023/06/05 04:01:56;;;;;;;9.40;5.33;;;14.30;15.20;;;;;;5025954;28;20477;-64
2023/06/05 04:04:23;;;;;;;10.03;5.30;;;14.30;15.20;;;;;;5018163;28;20548;-64
2023/06/05 04:06:50;;;;;;;7.83;4.53;;;14.40;15.20;;;;;;5020156;28;20871;-68
2023/06/05 04:09:17;;;;;;;8.03;4.77;;;14.40;15.50;;;;;;5022438;28;20467;-65
2023/06/05 04:11:45;;;;;;;9.07;5.70;;;14.50;15.30;;;;;;5024235;28;20965;-65
2023/06/05 04:14:14;;;;;;;8.80;4.77;;;14.50;15.20;;;;;;5022335;28;20471;-65
2023/06/05 04:16:42;;;;;;;9.63;5.33;;;14.60;15.10;;;;;;5021275;28;20459;-64
2023/06/05 04:19:10;;;;;;;8.17;4.83;;;14.60;15.00;;;;;;5023561;28;20481;-66
2023/06/05 04:21:37;;;;;;;10.47;5.70;;;14.70;15.10;;;;;;5026449;28;20502;-67
2023/06/05 04:24:06;;;;;;;8.40;4.50;;;14.70;15.10;;;;;;5029107;28;20468;-67
2023/06/05 04:26:33;;;;;;;10.27;5.50;;;14.80;14.80;;;;;;5023058;28;21008;-67
2023/06/05 04:29:02;;;;;;;7.80;4.30;;;15.00;14.80;;;;;;5015229;28;20470;-68
2023/06/05 04:31:30;;;;;;;8.50;4.47;;;15.70;14.10;;;;;;5015624;28;20688;-68
2023/06/05 04:33:57;;;;;;;6.83;4.27;;;16.70;12.60;;;;;;5030233;28;20479;-68
2023/06/05 04:36:24;;;;;;;7.27;4.77;;;17.70;10.70;;;;;;5016904;28;20610;-68
2023/06/05 04:38:51;;;;;;;7.63;4.13;;;18.60;8.50;;;;;;5036208;28;20466;-68
2023/06/05 04:41:17;;;;;;;10.77;5.70;;;19.40;6.80;;;;;;5027950;28;20478;-69
2023/06/05 04:43:44;;;;;;;9.03;5.00;;;20.10;5.40;;;;;;5026026;28;20841;-70
2023/06/05 04:46:11;;;;;;;7.47;4.43;;;20.70;4.10;;;;;;5028049;28;20582;-69
2023/06/05 04:48:40;;;;;;;9.20;4.20;;;21.10;3.00;;;;;;5030344;28;20467;-69
2023/06/05 04:51:07;;;;;;;7.47;4.77;;;20.90;3.00;;;;;;5032980;28;20553;-69
2023/06/05 04:53:34;;;;;;;7.77;4.67;;;20.50;3.60;;;;;;5031136;28;21010;-69
2023/06/05 04:56:01;;;;;;;10.90;4.20;;;20.30;4.60;;;;;;5033864;28;20481;-69
2023/06/05 04:58:28;;;;;;;8.10;4.33;;;21.10;3.40;;;;;;5025213;28;20831;-69
2023/06/05 05:01:04;;;;;;;7.13;4.27;;;22.30;1.50;;;;;;5032624;28;20465;-69
2023/06/05 05:03:31;;;;;;;9.77;4.40;;;23.30;1.00;;;;;;5026966;28;20466;-69
2023/06/05 05:06:00;;;;;;;9.40;4.50;;;24.30;1.00;;;;;;5029351;28;20493;-69
2023/06/05 05:08:28;;;;;;;7.47;4.17;;;25.00;1.00;;;;;;5028318;28;20562;-70
2023/06/05 05:10:55;;;;;;;8.40;4.80;;;25.80;1.00;;;;;;5027627;28;20983;-67
2023/06/05 05:13:21;;;;;;;8.60;4.33;;;26.50;1.00;;;;;;5026828;28;20478;-66
2023/06/05 05:26:11;;;;;;;9.53;3.90;;;29.80;1.00;;;;;;5190241;22;20527;-69
2023/06/05 05:28:37;;;;;;;7.77;4.23;;;30.30;1.00;;;;;;5006528;28;20494;-69
2023/06/05 05:31:04;;;;;;;7.10;4.07;;;30.80;1.00;;;;;;5002626;28;20479;-68
2023/06/05 05:33:31;;;;;;;6.27;4.17;;;31.40;1.00;;;;;;5007887;28;21025;-71
2023/06/05 05:35:58;;;;;;;8.63;4.83;;;31.90;1.00;;;;;;5005449;28;20494;-70
2023/06/05 05:38:25;;;;;;;8.33;3.80;;;32.50;1.00;;;;;;5003312;28;20464;-68
2023/06/05 05:40:52;;;;;;;9.23;4.57;;;33.00;1.00;;;;;;5009207;28;20491;-68
2023/06/05 05:43:20;;;;;;;8.90;4.63;;;33.60;1.00;;;;;;5002147;28;20466;-69
2023/06/05 05:45:46;;;;;;;7.87;4.33;;;32.50;1.00;;;;;;5006994;28;20533;-69
2023/06/05 05:48:13;;;;;;;10.50;4.30;;;30.60;1.00;;;;;;5001044;28;20474;-70
2023/06/05 05:50:41;;;;;;;9.90;4.90;;;29.30;1.00;;;;;;5003162;28;20838;-70
2023/06/05 05:53:08;;;;;;;7.37;4.67;;;28.50;1.00;;;;;;5005502;28;20489;-71
2023/06/05 05:55:34;;;;;;;9.30;4.60;;;28.00;1.00;;;;;;5005129;28;20488;-71
2023/06/05 05:58:01;;;;;;;7.50;4.70;;;29.30;1.00;;;;;;5004525;28;20493;-70
2023/06/05 06:00:29;;;;;;;12.23;4.80;;;30.40;1.00;;;;;;5002521;28;20463;-71
2023/06/05 06:02:56;;;;;;;10.13;4.67;;;32.10;1.00;;;;;;4999274;28;20580;-71
2023/06/05 06:05:23;;;;;;;8.40;4.50;;;33.30;1.00;;;;;;4999740;28;20484;-68
2023/06/05 06:07:50;;;;;;;8.40;4.70;;;32.10;1.00;;;;;;5003795;28;20472;-67
2023/06/05 06:10:17;;;;;;;7.13;4.23;;;30.80;1.00;;;;;;5006114;28;20464;-68
2023/06/05 06:12:45;;;;;;;7.30;4.00;;;29.70;1.00;;;;;;5001185;28;20459;-72
2023/06/05 06:15:12;;;;;;;6.80;4.40;;;28.70;1.00;;;;;;4999439;28;20522;-71
2023/06/05 06:17:40;;;;;;;13.33;4.20;;;27.60;1.00;;;;;;5001675;28;20503;-70
2023/06/05 06:20:09;;;;;;;10.77;4.47;;;26.90;1.00;;;;;;5002798;28;20811;-69
2023/06/05 06:22:36;;;;;;;7.00;3.80;;;26.40;1.00;;;;;;5003663;28;20472;-70
2023/06/05 06:25:03;;;;;;;7.47;4.53;;;26.70;1.00;;;;;;5001675;28;21003;-68
2023/06/05 06:27:30;;;;;;;8.20;4.70;;;27.70;1.00;;;;;;5004848;28;20523;-68
2023/06/05 06:29:57;;;;;;;7.70;4.30;;;28.70;1.00;;;;;;4997078;28;20925;-68
2023/06/05 06:32:25;;;;;;;7.97;4.43;;;29.90;1.00;;;;;;4990354;28;20894;-67
2023/06/05 06:34:54;;;;;;;7.93;4.40;;;32.40;1.00;;;;;;4988338;28;20506;-68
2023/06/05 06:37:21;;;;;;;8.90;4.67;;;34.70;1.00;;;;;;4991632;28;20618;-70
2023/06/05 06:39:49;;;;;;;7.23;4.60;;;36.10;1.00;;;;;;4992050;28;20495;-68
2023/06/05 06:42:15;;;;;;;7.90;4.40;;;37.40;1.00;;;;;;4989735;28;20584;-68
2023/06/05 06:44:42;;;;;;;6.97;4.33;;;38.40;1.00;;;;;;4989123;28;20479;-68
2023/06/05 06:47:09;;;;;;;7.00;4.13;;;39.50;1.00;;;;;;4985428;28;20469;-69
2023/06/05 06:49:36;;;;;;;5.87;4.30;;;40.60;1.00;;;;;;4984029;28;20467;-70
2023/06/05 06:52:05;;;;;;;9.00;4.50;;;41.60;1.00;;;;;;4994220;28;20476;-70
2023/06/05 06:54:32;;;;;;;6.10;4.00;;;42.10;1.00;;;;;;4999176;28;20480;-70
2023/06/05 06:57:00;;;;;;;8.43;4.67;;;42.70;1.00;;;;;;4999361;28;20461;-68
2023/06/05 06:59:27;;;;;;;6.70;4.23;;;43.60;1.00;;;;;;5000543;28;20555;-68
2023/06/05 07:02:10;;;;;;;6.20;4.50;;;44.40;1.00;;;;;;4995824;28;20487;-66
2023/06/05 07:04:37;;;;;;;9.40;5.00;;;45.00;1.00;;;;;;5000612;28;20525;-67
2023/06/05 07:07:06;;;;;;;7.20;4.60;;;45.60;1.00;;;;;;5006623;28;20464;-68
2023/06/05 07:09:32;;;;;;;7.93;4.83;;;46.10;1.00;;;;;;5007595;28;20504;-67
2023/06/05 07:12:04;;;;;;;7.13;4.80;;;46.60;1.00;;;;;;5006075;28;20466;-68
2023/06/05 07:14:31;;;;;;;10.70;4.90;;;46.90;1.00;;;;;;5003627;28;20913;-68
2023/06/05 07:16:59;;;;;;;9.60;4.73;;;47.30;1.00;;;;;;5010874;28;20460;-68
2023/06/05 07:19:26;;;;;;;6.37;4.40;;;47.60;1.00;;;;;;5008771;28;21235;-68
2023/06/05 07:21:53;;;;;;;5.93;5.00;;;48.00;1.00;;;;;;4996720;28;20987;-67
2023/06/05 07:24:21;;;;;;;7.60;4.63;;;48.50;1.00;;;;;;4993229;28;20460;-68
2023/06/05 07:26:48;;;;;;;8.97;4.60;;;48.90;1.00;;;;;;4994095;28;21253;-68
2023/06/05 07:29:15;;;;;;;6.60;4.07;;;49.10;1.00;;;;;;5000063;28;20482;-68
2023/06/05 07:31:42;;;;;;;7.00;4.70;;;49.30;1.00;;;;;;5000277;28;20586;-68
2023/06/05 07:34:09;;;;;;;9.07;5.10;;;49.80;1.00;;;;;;5009040;28;20546;-68
2023/06/05 07:36:36;;;;;;;6.57;5.33;;;50.10;1.00;;;;;;5002556;28;20921;-67
2023/06/05 07:39:03;;;;;;;7.87;4.43;;;49.90;1.00;;;;;;5000338;28;20463;-67
2023/06/05 07:41:31;;;;;;;6.37;4.50;;;50.20;1.00;;;;;;4997917;28;20471;-69
2023/06/05 07:43:58;;;;;;;6.83;4.70;;;50.70;1.00;;;;;;5000587;28;20455;-68
2023/06/05 07:46:25;;;;;;;6.47;4.53;;;51.30;1.00;;;;;;5003529;28;20495;-68
2023/06/05 07:48:51;;;;;;;6.00;4.20;;;51.30;1.00;;;;;;5006686;28;20470;-68
2023/06/05 07:51:18;;;;;;;7.27;4.10;;;51.70;1.00;;;;;;5001601;28;20469;-67
2023/06/05 07:53:45;;;;;;;8.47;4.80;;;52.10;1.00;;;;;;4999823;28;20844;-68
2023/06/05 07:56:13;;;;;;;5.70;4.43;;;52.10;1.00;;;;;;5007687;28;20522;-68
2023/06/05 07:58:42;;;;;;;9.80;5.07;;;52.00;1.00;;;;;;5005154;28;20463;-68
2023/06/05 08:01:09;;;;;;;9.13;4.63;;;51.90;1.00;;;;;;5002237;28;20622;-68
2023/06/05 08:03:35;;;;;;;6.60;4.60;;;52.40;1.00;;;;;;5002521;28;20468;-67
2023/06/05 08:06:02;;;;;;;7.13;4.30;;;52.90;1.00;;;;;;5004093;28;20498;-70
2023/06/05 08:08:29;;;;;;;5.40;4.07;;;53.10;1.00;;;;;;5007080;28;20838;-70
2023/06/05 08:10:56;;;;;;;6.97;5.20;;;53.30;1.00;;;;;;4990716;28;21010;-70
2023/06/05 08:13:23;;;;;;;10.23;4.53;;;53.40;1.00;;;;;;5004181;28;20463;-70
2023/06/05 08:15:51;;;;;;;8.20;4.33;;;53.40;1.00;;;;;;5000325;28;20506;-71
2023/06/05 08:18:18;;;;;;;6.90;4.00;;;53.40;1.00;;;;;;4990616;28;20464;-70
2023/06/05 08:20:45;;;;;;;6.13;4.63;;;53.80;1.00;;;;;;4995356;28;21007;-71
2023/06/05 08:23:12;;;;;;;7.97;5.40;;;54.00;1.00;;;;;;4990691;28;20474;-70
2023/06/05 08:25:40;;;;;;;6.90;4.70;;;54.20;1.00;;;;;;4983017;28;20867;-71
2023/06/05 08:28:07;;;;;;;6.13;4.37;;;54.40;1.00;;;;;;4992412;28;20526;-71
2023/06/05 08:30:33;;;;;;;6.17;4.30;;;54.50;1.00;;;;;;4988688;28;20476;-71
2023/06/05 08:33:01;;;;;;;5.30;4.63;;;53.80;1.00;;;;;;4989215;28;20471;-70
2023/06/05 08:35:29;;;;;;;6.40;4.83;;;53.40;1.00;;;;;;4986949;28;20787;-70
2023/06/05 08:37:55;;;;;;;6.83;4.40;;;53.50;1.00;;;;;;4987068;28;20467;-71
2023/06/05 08:40:23;;;;;;;7.80;4.33;;;53.80;1.00;;;;;;4999879;28;21392;-70
2023/06/05 08:42:50;;;;;;;12.70;4.60;;;54.10;1.00;;;;;;5007137;28;20478;-70
2023/06/05 08:45:17;;;;;;;8.07;5.00;;;54.60;1.00;;;;;;5003323;28;20491;-70
2023/06/05 08:47:49;;;;;;;7.90;5.30;;;54.80;1.00;;;;;;5002324;28;20482;-70
2023/06/05 08:50:17;;;;;;;8.03;4.33;;;54.80;1.00;;;;;;5004802;28;20976;-70
2023/06/05 08:52:45;;;;;;;6.33;4.47;;;54.80;1.00;;;;;;5006120;28;20475;-70
2023/06/05 08:55:12;;;;;;;6.27;4.23;;;54.90;1.00;;;;;;5005025;28;20566;-70
2023/06/05 08:57:40;;;;;;;7.57;4.50;;;54.70;1.00;;;;;;5012732;28;20459;-70
2023/06/05 09:00:10;;;;;;;7.03;4.23;;;54.70;1.00;;;;;;5005389;28;20467;-70
2023/06/05 09:02:38;;;;;;;4.87;3.67;;;54.60;1.00;;;;;;5005316;28;20543;-72
2023/06/05 09:05:05;;;;;;;6.23;3.93;;;54.40;1.00;;;;;;5005112;28;20491;-75
2023/06/05 09:07:34;;;;;;;7.07;4.50;;;54.40;1.00;;;;;;5007605;28;20467;-71
2023/06/05 09:10:00;;;;;;;8.90;4.50;;;54.20;1.00;;;;;;5002672;28;20473;-72
2023/06/05 09:12:27;;;;;;;8.33;4.80;;;53.70;1.00;;;;;;5001241;28;20471;-70
2023/06/05 09:14:54;;;;;;;6.33;4.37;;;53.40;1.00;;;;;;5003800;28;20484;-70
2023/06/05 09:17:22;;;;;;;6.47;4.20;;;53.20;1.00;;;;;;4998350;28;20490;-67
2023/06/05 09:19:50;;;;;;;10.70;4.53;;;52.60;1.00;;;;;;5000957;28;20506;-67
2023/06/05 09:22:17;;;;;;;5.50;3.80;;;52.10;1.00;;;;;;4991703;28;20463;-67
2023/06/05 09:24:57;;;;;;;8.60;4.73;;;50.90;1.00;;;;;;4999191;28;20479;-67
2023/06/05 09:27:23;;;;;;;7.20;4.23;;;49.10;1.00;;;;;;5003126;28;20463;-67
2023/06/05 09:30:03;;;;;;;8.20;4.77;;;46.80;1.00;;;;;;4996685;28;20468;-67
2023/06/05 09:32:30;;;;;;;5.90;4.63;;;44.90;1.00;;;;;;4996686;28;20659;-67
2023/06/05 09:35:00;;;;;;;10.67;4.30;;;43.20;1.00;;;;;;5000515;28;20859;-67
2023/06/05 09:37:33;;;;;;;11.03;4.43;;;41.70;1.00;;;;;;4999132;28;20475;-67
2023/06/05 09:40:02;;;;;;;7.83;4.50;;;40.40;1.00;;;;;;4999571;28;20464;-67
2023/06/05 09:42:35;;;;;;;6.97;4.63;;;39.20;1.00;;;;;;4996022;28;20995;-66
2023/06/05 09:45:04;;;;;;;7.13;4.77;;;38.00;1.00;;;;;;4996756;28;20954;-66
2023/06/05 09:47:31;;;;;;;6.70;4.63;;;37.00;1.00;;;;;;4993958;28;20475;-66
2023/06/05 09:49:57;;;;;;;6.90;4.60;;;36.00;1.00;;;;;;4999871;28;20506;-69
2023/06/05 09:52:24;;;;;;;6.60;4.60;;;35.20;1.00;;;;;;5002923;28;20565;-69
2023/06/05 09:54:55;;;;;;;7.47;4.43;;;34.30;1.00;;;;;;5006500;28;20500;-69
2023/06/05 09:57:26;;;;;;;7.20;4.90;;;33.30;1.00;;;;;;5007000;28;20463;-69
2023/06/05 09:59:54;;;;;;;10.03;5.17;;;32.60;1.00;;;;;;5002625;28;20934;-69
2023/06/05 10:02:24;;;;;;;5.40;3.40;;;32.20;1.00;;;;;;5001804;28;20483;-69
2023/06/05 10:04:57;;;;;;;7.40;4.10;;;31.80;1.00;;;;;;5001600;28;21349;-69
2023/06/05 10:07:25;;;;;;;6.37;4.40;;;31.20;1.00;;;;;;5004089;28;20470;-69
2023/06/05 10:09:51;;;;;;;8.37;5.43;;;30.60;1.00;;;;;;5004571;28;20468;-69
2023/06/05 10:12:19;;;;;;;6.80;4.50;;;30.40;1.00;;;;;;5000840;28;20459;-68
2023/06/05 10:14:49;;;;;;;7.30;4.97;;;30.30;1.00;;;;;;5002498;28;20491;-69
2023/06/05 10:17:17;;;;;;;7.07;5.23;;;30.20;1.00;;;;;;4999512;28;20475;-69
2023/06/05 10:19:44;;;;;;;6.50;4.03;;;29.90;1.00;;;;;;5003222;28;20472;-68
2023/06/05 10:22:11;;;;;;;7.20;4.10;;;29.80;1.00;;;;;;4999080;28;20464;-68
2023/06/05 10:24:57;;;;;;;11.47;5.03;;;29.70;1.00;;;;;;4999056;28;20484;-68
2023/06/05 10:27:57;;;;;;;6.87;4.60;;;29.70;1.00;;;;;;5005804;28;20466;-68
2023/06/05 10:30:55;;;;;;;6.90;4.33;;;29.60;1.00;;;;;;4998461;28;20477;-70
2023/06/05 10:33:32;;;;;;;7.97;4.70;;;29.60;1.00;;;;;;5002879;28;20528;-71
2023/06/05 10:36:09;;;;;;;6.80;4.23;;;29.60;1.00;;;;;;4997993;28;20479;-69
2023/06/05 10:38:38;;;;;;;6.27;3.87;;;29.30;1.00;;;;;;5004727;28;20482;-69
2023/06/05 10:41:05;;;;;;;6.73;4.27;;;29.10;1.00;;;;;;5002020;28;20468;-69
2023/06/05 10:43:33;;;;;;;7.00;4.50;;;28.80;1.00;;;;;;5006112;28;20467;-69
2023/06/05 10:46:03;;;;;;;6.97;4.00;;;28.60;1.00;;;;;;5003115;28;20959;-69
2023/06/05 10:49:12;;;;;;;9.13;4.03;;;28.50;1.00;;;;;;5005334;28;20467;-69
2023/06/05 10:51:42;;;;;;;7.57;4.30;;;28.20;1.00;;;;;;5002563;28;20472;-69
2023/06/05 10:54:09;;;;;;;8.00;4.37;;;28.00;1.00;;;;;;4997279;28;20468;-69
2023/06/05 10:56:59;;;;;;;6.70;4.10;;;28.00;1.00;;;;;;5002837;28;20475;-69
2023/06/05 10:59:27;;;;;;;5.90;4.27;;;27.90;1.00;;;;;;5004824;28;20472;-69
2023/06/05 11:02:24;;;;;;;7.47;4.60;;;27.80;1.00;;;;;;5001367;28;20471;-69
2023/06/05 11:05:11;;;;;;;9.07;4.40;;;27.90;1.00;;;;;;5001041;28;20561;-69
2023/06/05 11:07:39;;;;;;;7.43;4.50;;;28.00;1.00;;;;;;5001299;28;20514;-71
2023/06/05 11:10:15;;;;;;;7.23;4.60;;;28.10;1.00;;;;;;5004176;28;20464;-66
2023/06/05 11:13:02;;;;;;;11.33;4.47;;;28.00;1.00;;;;;;5003450;28;21005;-70
2023/06/05 11:15:45;;;;;;;7.30;3.80;;;28.00;1.00;;;;;;4999914;28;20491;-68
2023/06/05 11:18:32;;;;;;;7.73;4.80;;;28.00;1.00;;;;;;4995651;28;20859;-72
2023/06/05 11:20:59;;;;;;;7.37;3.90;;;28.00;1.00;;;;;;4999121;28;20472;-70
2023/06/05 11:23:27;;;;;;;7.87;4.07;;;28.10;1.00;;;;;;5000727;28;20456;-70
2023/06/05 11:25:57;;;;;;;8.47;4.27;;;28.10;1.00;;;;;;5001070;28;21063;-70
2023/06/05 11:28:41;;;;;;;8.20;4.20;;;28.10;1.00;;;;;;4999148;28;20460;-70
2023/06/05 11:31:07;;;;;;;6.70;4.50;;;28.20;1.00;;;;;;5001598;28;20506;-70
2023/06/05 11:33:36;;;;;;;7.97;4.27;;;28.20;1.00;;;;;;5000972;28;20471;-70
2023/06/05 11:36:06;;;;;;;8.93;4.50;;;28.10;1.00;;;;;;5004452;28;20533;-70
2023/06/05 11:38:34;;;;;;;9.70;4.20;;;27.90;1.00;;;;;;5001242;28;20487;-70
2023/06/05 11:41:01;;;;;;;8.23;3.83;;;27.70;1.00;;;;;;5004118;28;20464;-70
2023/06/05 11:43:27;;;;;;;9.80;4.07;;;27.50;1.00;;;;;;5000959;28;20478;-70
2023/06/05 11:45:56;;;;;;;8.10;4.50;;;27.40;1.00;;;;;;5003215;28;20480;-70
2023/06/05 11:48:23;;;;;;;6.00;4.10;;;27.20;1.00;;;;;;5004836;28;20468;-70
2023/06/05 11:50:56;;;;;;;7.43;4.20;;;27.10;1.00;;;;;;5001978;28;20502;-71
2023/06/05 11:53:24;;;;;;;10.00;4.97;;;27.10;1.00;;;;;;5007265;28;20611;-70
2023/06/05 11:56:07;;;;;;;6.30;3.67;;;27.20;1.00;;;;;;5003699;28;20498;-70
2023/06/05 11:58:36;;;;;;;7.20;4.40;;;27.20;1.00;;;;;;5005966;28;20908;-70
2023/06/05 12:01:12;;;;;;;7.33;4.83;;;27.10;1.00;;;;;;5005350;28;20612;-70
2023/06/05 12:03:39;;;;;;;8.27;4.70;;;27.10;1.00;;;;;;5000275;28;20478;-71
2023/06/05 12:06:07;;;;;;;7.70;4.57;;;27.00;1.00;;;;;;5005868;28;20467;-71
2023/06/05 12:08:35;;;;;;;6.87;4.50;;;27.10;1.00;;;;;;5007363;28;20470;-71
2023/06/05 12:11:03;;;;;;;8.07;4.67;;;27.10;1.00;;;;;;5004798;28;21269;-71
2023/06/05 12:13:49;;;;;;;9.30;4.40;;;27.10;1.00;;;;;;5007066;28;20851;-71
2023/06/05 12:16:16;;;;;;;8.23;4.27;;;27.00;1.00;;;;;;5006504;28;20495;-71
2023/06/05 12:18:43;;;;;;;6.57;4.40;;;27.20;1.00;;;;;;5002955;28;20483;-71
2023/06/05 12:21:22;;;;;;;8.30;4.67;;;27.20;1.00;;;;;;5008798;28;20467;-71
2023/06/05 12:23:50;;;;;;;7.10;4.40;;;27.20;1.00;;;;;;5006011;28;20859;-71
2023/06/05 12:26:17;;;;;;;9.13;5.20;;;27.30;1.00;;;;;;5002933;28;20487;-71
2023/06/05 12:28:46;;;;;;;8.20;4.13;;;27.40;1.00;;;;;;5008804;28;20526;-71
2023/06/05 12:31:34;;;;;;;7.77;4.60;;;27.40;1.00;;;;;;5000507;28;20499;-71
2023/06/05 12:34:02;;;;;;;7.23;4.97;;;27.30;1.00;;;;;;5007717;28;20475;-70
2023/06/05 12:36:31;;;;;;;9.83;4.57;;;27.20;1.00;;;;;;5003589;28;20515;-70
2023/06/05 12:39:05;;;;;;;10.83;5.10;;;27.20;1.00;;;;;;5005723;28;20468;-68
2023/06/05 12:41:32;;;;;;;8.77;4.63;;;27.20;1.00;;;;;;5003107;28;20538;-68
2023/06/05 12:44:04;;;;;;;8.30;4.60;;;27.20;1.00;;;;;;5004808;28;20468;-70
2023/06/05 12:46:31;;;;;;;9.10;5.00;;;27.20;1.00;;;;;;4996844;28;20486;-68
2023/06/05 12:48:58;;;;;;;8.77;4.90;;;27.10;1.00;;;;;;5003515;28;20496;-72
2023/06/05 12:51:25;;;;;;;7.70;5.30;;;26.90;1.00;;;;;;4999672;28;20464;-68
2023/06/05 12:53:54;;;;;;;7.40;4.47;;;26.70;1.00;;;;;;5004795;28;20510;-67
2023/06/05 12:56:24;;;;;;;10.10;4.80;;;26.60;1.00;;;;;;5004753;28;21304;-68
2023/06/05 12:58:52;;;;;;;9.47;5.07;;;26.60;1.00;;;;;;5004860;28;21013;-68
2023/06/05 13:01:18;;;;;;;9.70;4.67;;;26.60;1.00;;;;;;5004313;28;20480;-68
2023/06/05 13:03:45;;;;;;;7.60;5.13;;;26.60;1.00;;;;;;5004934;28;20554;-67
2023/06/05 13:06:12;;;;;;;10.00;5.30;;;26.60;1.00;;;;;;4995224;28;20571;-69
2023/06/05 13:08:39;;;;;;;8.63;4.77;;;26.70;1.00;;;;;;5005800;28;20677;-69